Time;durP1;ratioP1;P1;durP2;ratioP2;P2;SDS_P1;SDS_P2;PMS_P1;PMS_P2;Temp;Humidity;BMP_temperature;BMP_pressure;BME280_temperature;BME280_humidity;BME280_pressure;Samples;Min_cycle;Max_cycle;Signal;HPM_P1;HPM_P2
2024/03/29 00:00:13;;;;;;;0.30;0.27;;;;;;;;;;6259591;28;20059;-76
2024/03/29 00:03:13;;;;;;;0.63;0.33;;;;;;;;;;6264370;28;20462;-76
2024/03/29 00:06:13;;;;;;;1.13;0.30;;;;;;;;;;6261752;28;20063;-76
2024/03/29 00:09:13;;;;;;;0.10;0.10;;;;;;;;;;6252170;28;20025;-76
2024/03/29 00:12:14;;;;;;;0.20;0.17;;;;;;;;;;6248388;28;20616;-76
2024/03/29 00:15:14;;;;;;;0.20;0.20;;;;;;;;;;6253313;28;20035;-76
2024/03/29 00:18:14;;;;;;;0.30;0.20;;;;;;;;;;6262452;28;20469;-76
2024/03/29 00:21:15;;;;;;;0.40;0.30;;;;;;;;;;6262758;28;20037;-76
2024/03/29 00:24:15;;;;;;;0.60;0.40;;;;;;;;;;6251131;28;20469;-77
2024/03/29 00:27:15;;;;;;;0.10;0.10;;;;;;;;;;6266240;28;20037;-76
2024/03/29 00:30:15;;;;;;;0.20;0.20;;;;;;;;;;6262531;28;20025;-76
2024/03/29 00:33:16;;;;;;;0.30;0.30;;;;;;;;;;6253146;28;20087;-76
2024/03/29 00:36:16;;;;;;;0.93;0.33;;;;;;;;;;6263752;28;20057;-74
2024/03/29 00:39:16;;;;;;;0.40;0.40;;;;;;;;;;6252536;28;20040;-76
2024/03/29 00:42:16;;;;;;;0.20;0.20;;;;;;;;;;6255105;28;20059;-76
2024/03/29 00:45:17;;;;;;;0.50;0.40;;;;;;;;;;6235132;28;20029;-75
2024/03/29 00:48:19;;;;;;;0.33;0.30;;;;;;;;;;6255646;28;20022;-76
2024/03/29 00:51:20;;;;;;;0.40;0.30;;;;;;;;;;6262443;28;20075;-76
2024/03/29 00:54:20;;;;;;;0.30;0.30;;;;;;;;;;6251695;28;20428;-75
2024/03/29 00:57:20;;;;;;;0.97;0.40;;;;;;;;;;6270084;28;20166;-75
2024/03/29 01:00:20;;;;;;;0.67;0.37;;;;;;;;;;6256374;28;20025;-76
2024/03/29 01:03:20;;;;;;;0.60;0.40;;;;;;;;;;6247161;28;20074;-76
2024/03/29 01:06:21;;;;;;;0.50;0.30;;;;;;;;;;6257017;28;20033;-76
2024/03/29 01:09:21;;;;;;;0.40;0.20;;;;;;;;;;6258439;28;20021;-76
2024/03/29 01:12:21;;;;;;;0.20;0.10;;;;;;;;;;6258114;28;20036;-76
2024/03/29 01:15:22;;;;;;;0.40;0.20;;;;;;;;;;6258861;28;20470;-77
2024/03/29 01:18:22;;;;;;;0.10;0.10;;;;;;;;;;6249953;28;20486;-76
2024/03/29 01:21:22;;;;;;;0.30;0.20;;;;;;;;;;6258698;28;20469;-77
2024/03/29 01:24:23;;;;;;;0.17;0.17;;;;;;;;;;6242325;28;20297;-77
2024/03/29 01:27:23;;;;;;;1.03;0.20;;;;;;;;;;6237465;28;20488;-77
2024/03/29 01:30:24;;;;;;;;;;;;;;;;;;6256632;28;20108;-77
2024/03/29 01:33:25;;;;;;;0.10;0.10;;;;;;;;;;6264547;28;19915;-77
2024/03/29 01:36:25;;;;;;;0.10;0.10;;;;;;;;;;6263803;28;20115;-77
2024/03/29 01:39:31;;;;;;;0.20;0.20;;;;;;;;;;6261883;28;20465;-77
2024/03/29 01:42:31;;;;;;;0.10;0.10;;;;;;;;;;6263373;28;20025;-77
2024/03/29 01:45:31;;;;;;;0.17;0.10;;;;;;;;;;6254069;28;20025;-77
2024/03/29 01:48:32;;;;;;;0.10;0.10;;;;;;;;;;6257293;28;20029;-73
2024/03/29 01:51:34;;;;;;;0.47;0.10;;;;;;;;;;6261230;28;20028;-73
2024/03/29 01:54:35;;;;;;;0.22;0.15;;;;;;;;;;6260502;28;20033;-73
2024/03/29 01:57:35;;;;;;;0.30;0.20;;;;;;;;;;6258778;28;20029;-73
2024/03/29 02:00:41;;;;;;;0.20;0.20;;;;;;;;;;6240178;28;20033;-73
2024/03/29 02:03:41;;;;;;;0.20;0.20;;;;;;;;;;6264441;28;20275;-74
2024/03/29 02:06:41;;;;;;;0.30;0.10;;;;;;;;;;6245850;28;20025;-75
2024/03/29 02:09:42;;;;;;;0.30;0.20;;;;;;;;;;6253108;28;20061;-74
2024/03/29 02:12:42;;;;;;;0.50;0.40;;;;;;;;;;6258913;28;20028;-73
2024/03/29 02:15:42;;;;;;;0.53;0.50;;;;;;;;;;6259374;28;20144;-73
2024/03/29 02:18:42;;;;;;;0.50;0.50;;;;;;;;;;6260441;28;20339;-73
2024/03/29 02:21:45;;;;;;;0.63;0.30;;;;;;;;;;6255563;28;20034;-73
2024/03/29 02:24:45;;;;;;;0.50;0.30;;;;;;;;;;6253951;28;20473;-74
2024/03/29 02:27:46;;;;;;;0.50;0.30;;;;;;;;;;6258100;28;20029;-73
2024/03/29 02:30:46;;;;;;;0.50;0.20;;;;;;;;;;6272187;28;20378;-73
2024/03/29 02:33:47;;;;;;;0.30;0.30;;;;;;;;;;6268514;28;20056;-74
2024/03/29 02:36:47;;;;;;;0.47;0.30;;;;;;;;;;6260339;28;20064;-73
2024/03/29 02:39:47;;;;;;;0.47;0.30;;;;;;;;;;6265362;28;20171;-73
2024/03/29 02:42:48;;;;;;;0.30;0.10;;;;;;;;;;6266554;28;20061;-73
2024/03/29 02:45:48;;;;;;;0.30;0.20;;;;;;;;;;6255962;28;20053;-73
2024/03/29 02:48:48;;;;;;;0.30;0.27;;;;;;;;;;6263074;28;20461;-73
2024/03/29 02:51:52;;;;;;;0.47;0.27;;;;;;;;;;6253365;28;20496;-73
2024/03/29 02:54:52;;;;;;;0.45;0.40;;;;;;;;;;6262927;28;20037;-73
2024/03/29 02:57:53;;;;;;;0.30;0.20;;;;;;;;;;6259194;28;20032;-73
2024/03/29 03:00:53;;;;;;;0.60;0.30;;;;;;;;;;6261178;28;20025;-73
2024/03/29 03:03:53;;;;;;;0.80;0.37;;;;;;;;;;6249168;28;20445;-74
2024/03/29 03:06:55;;;;;;;0.60;0.33;;;;;;;;;;6261864;28;20440;-74
2024/03/29 03:13:14;;;;;;;0.30;0.30;;;;;;;;;;6261415;28;20025;-73
2024/03/29 03:16:14;;;;;;;0.60;0.30;;;;;;;;;;6259032;28;20102;-73
2024/03/29 03:19:15;;;;;;;0.37;0.20;;;;;;;;;;6268581;28;20029;-74
2024/03/29 03:22:15;;;;;;;0.37;0.30;;;;;;;;;;6257066;28;20041;-75
2024/03/29 03:25:15;;;;;;;0.30;0.30;;;;;;;;;;6261473;28;20032;-73
2024/03/29 03:28:15;;;;;;;0.37;0.30;;;;;;;;;;6261631;28;20075;-73
2024/03/29 03:31:15;;;;;;;0.37;0.20;;;;;;;;;;6259739;28;20465;-73
2024/03/29 03:34:16;;;;;;;0.50;0.50;;;;;;;;;;6257856;28;20053;-74
2024/03/29 03:37:16;;;;;;;0.40;0.40;;;;;;;;;;6258596;28;20526;-73
2024/03/29 03:40:16;;;;;;;1.33;0.60;;;;;;;;;;6270870;28;20493;-74
2024/03/29 03:43:16;;;;;;;0.63;0.50;;;;;;;;;;6270370;28;20485;-73
2024/03/29 03:46:17;;;;;;;0.40;0.33;;;;;;;;;;6258038;28;20378;-74
2024/03/29 03:49:17;;;;;;;0.97;0.40;;;;;;;;;;6259724;28;20429;-74
2024/03/29 03:52:17;;;;;;;0.27;0.27;;;;;;;;;;6248586;28;20571;-73
2024/03/29 03:55:17;;;;;;;0.40;0.30;;;;;;;;;;6270182;28;20363;-73
2024/03/29 03:58:18;;;;;;;0.30;0.30;;;;;;;;;;6257009;28;20021;-73
2024/03/29 04:01:18;;;;;;;1.20;0.43;;;;;;;;;;6261843;28;20071;-73
2024/03/29 04:04:18;;;;;;;0.33;0.30;;;;;;;;;;6260203;28;20021;-74
2024/03/29 04:07:18;;;;;;;0.30;0.30;;;;;;;;;;6260964;28;20044;-73
2024/03/29 04:10:19;;;;;;;0.10;0.10;;;;;;;;;;6256877;28;20034;-73
2024/03/29 04:13:19;;;;;;;0.53;0.40;;;;;;;;;;6253341;28;20030;-73
2024/03/29 04:16:19;;;;;;;0.43;0.30;;;;;;;;;;6267460;28;20025;-73
2024/03/29 04:19:19;;;;;;;0.50;0.40;;;;;;;;;;6258376;28;20025;-74
2024/03/29 04:22:19;;;;;;;0.53;0.40;;;;;;;;;;6251943;28;20024;-73
2024/03/29 04:25:20;;;;;;;1.00;0.43;;;;;;;;;;6254317;28;20028;-74
2024/03/29 04:28:20;;;;;;;0.70;0.50;;;;;;;;;;6253405;28;20029;-73
2024/03/29 04:31:20;;;;;;;0.57;0.50;;;;;;;;;;6259005;28;20205;-73
2024/03/29 04:34:20;;;;;;;0.20;0.20;;;;;;;;;;6262251;28;20076;-73
2024/03/29 04:37:21;;;;;;;0.23;0.20;;;;;;;;;;6261556;28;20117;-74
2024/03/29 04:40:21;;;;;;;0.40;0.30;;;;;;;;;;6257469;28;20036;-74
2024/03/29 04:43:22;;;;;;;0.20;0.20;;;;;;;;;;6257455;28;20039;-74
2024/03/29 04:46:22;;;;;;;0.55;0.30;;;;;;;;;;6254139;28;20043;-73
2024/03/29 04:49:44;;;;;;;0.53;0.30;;;;;;;;;;6256040;28;20033;-75
2024/03/29 04:52:43;;;;;;;0.22;0.20;;;;;;;;;;6245380;28;20175;-74
2024/03/29 04:55:47;;;;;;;0.23;0.20;;;;;;;;;;6257511;28;20041;-74
2024/03/29 04:58:47;;;;;;;0.40;0.25;;;;;;;;;;6246330;28;20500;-73
2024/03/29 05:01:52;;;;;;;0.50;0.30;;;;;;;;;;6258872;28;20112;-73
2024/03/29 05:04:53;;;;;;;0.30;0.22;;;;;;;;;;6259515;28;20095;-73
2024/03/29 05:07:54;;;;;;;0.40;0.20;;;;;;;;;;6255601;28;20029;-74
2024/03/29 05:10:54;;;;;;;0.50;0.43;;;;;;;;;;6251585;28;20141;-73
2024/03/29 05:13:54;;;;;;;1.50;0.40;;;;;;;;;;6258185;28;20647;-73
2024/03/29 05:16:55;;;;;;;0.43;0.30;;;;;;;;;;6254574;28;20030;-74
2024/03/29 05:19:55;;;;;;;0.40;0.20;;;;;;;;;;6253214;28;20497;-73
2024/03/29 05:22:55;;;;;;;0.80;0.30;;;;;;;;;;6261938;28;20551;-73
2024/03/29 05:25:55;;;;;;;0.20;0.20;;;;;;;;;;6264802;28;20408;-73
2024/03/29 05:28:57;;;;;;;0.40;0.27;;;;;;;;;;6264600;28;20392;-73
2024/03/29 05:31:57;;;;;;;0.50;0.30;;;;;;;;;;6261315;28;20009;-74
2024/03/29 05:34:58;;;;;;;0.43;0.30;;;;;;;;;;6253635;28;20405;-74
2024/03/29 05:37:58;;;;;;;2.20;1.00;;;;;;;;;;6248860;28;20504;-73
2024/03/29 05:40:58;;;;;;;1.43;1.30;;;;;;;;;;6257428;28;20021;-73
2024/03/29 05:43:58;;;;;;;1.40;0.73;;;;;;;;;;6260249;28;20055;-72
2024/03/29 05:46:59;;;;;;;0.40;0.40;;;;;;;;;;6249345;28;20060;-74
2024/03/29 05:49:59;;;;;;;0.40;0.40;;;;;;;;;;6264345;28;20031;-74
2024/03/29 05:53:01;;;;;;;0.80;0.50;;;;;;;;;;6260238;28;20025;-74
2024/03/29 05:56:01;;;;;;;0.65;0.40;;;;;;;;;;6268617;28;20385;-72
2024/03/29 05:59:01;;;;;;;0.67;0.40;;;;;;;;;;6261890;28;20042;-75
2024/03/29 06:02:01;;;;;;;0.77;0.50;;;;;;;;;;6263237;28;20018;-76
2024/03/29 06:05:02;;;;;;;0.83;0.40;;;;;;;;;;6271530;28;20481;-75
2024/03/29 06:08:05;;;;;;;0.30;0.30;;;;;;;;;;6260713;28;20479;-76
2024/03/29 06:11:05;;;;;;;0.70;0.30;;;;;;;;;;6266273;28;20051;-76
2024/03/29 06:17:26;;;;;;;0.50;0.30;;;;;;;;;;6268761;28;20519;-76
2024/03/29 06:20:26;;;;;;;1.00;0.60;;;;;;;;;;6270183;28;20079;-76
2024/03/29 06:23:26;;;;;;;1.30;0.50;;;;;;;;;;6266980;28;20024;-76
2024/03/29 06:26:27;;;;;;;0.87;0.60;;;;;;;;;;6265442;28;20029;-76
2024/03/29 06:29:27;;;;;;;1.07;0.60;;;;;;;;;;6269297;28;20035;-76
2024/03/29 06:32:27;;;;;;;0.90;0.57;;;;;;;;;;6266747;28;20067;-76
2024/03/29 06:35:27;;;;;;;0.93;0.50;;;;;;;;;;6269166;28;20147;-76
2024/03/29 06:38:28;;;;;;;0.63;0.50;;;;;;;;;;6259009;28;20107;-76
2024/03/29 06:41:28;;;;;;;0.77;0.33;;;;;;;;;;6270074;28;21221;-77
2024/03/29 06:44:28;;;;;;;0.90;0.33;;;;;;;;;;6261955;28;20446;-77
2024/03/29 06:47:28;;;;;;;0.23;0.20;;;;;;;;;;6253677;28;20467;-76
2024/03/29 06:50:29;;;;;;;0.23;0.23;;;;;;;;;;6266726;28;20009;-76
2024/03/29 06:53:29;;;;;;;0.53;0.37;;;;;;;;;;6261966;28;20041;-75
2024/03/29 06:56:30;;;;;;;0.27;0.20;;;;;;;;;;6254807;28;20112;-75
2024/03/29 06:59:30;;;;;;;1.10;0.23;;;;;;;;;;6256041;28;20041;-76
2024/03/29 07:02:30;;;;;;;0.33;0.17;;;;;;;;;;6250384;28;20060;-76
2024/03/29 07:05:30;;;;;;;0.20;0.20;;;;;;;;;;6249231;28;20017;-81
2024/03/29 07:08:31;;;;;;;0.30;0.30;;;;;;;;;;6251761;28;20425;-80
2024/03/29 07:11:31;;;;;;;0.40;0.23;;;;;;;;;;6276557;28;20021;-82
2024/03/29 07:14:33;;;;;;;0.27;0.10;;;;;;;;;;6261669;28;20021;-83
2024/03/29 07:17:34;;;;;;;0.20;0.10;;;;;;;;;;6256092;28;20026;-80
2024/03/29 07:20:34;;;;;;;0.15;0.08;;;;;;;;;;6256457;28;20409;-81
2024/03/29 07:23:34;;;;;;;0.80;0.30;;;;;;;;;;6250833;28;20037;-79
2024/03/29 07:26:34;;;;;;;0.67;0.23;;;;;;;;;;6253754;28;20025;-76
2024/03/29 07:29:35;;;;;;;1.00;0.30;;;;;;;;;;6258104;28;20039;-76
2024/03/29 07:32:35;;;;;;;0.80;0.40;;;;;;;;;;6250314;28;20235;-77
2024/03/29 07:35:35;;;;;;;0.40;0.30;;;;;;;;;;6240618;28;20477;-76
2024/03/29 07:38:36;;;;;;;0.50;0.30;;;;;;;;;;6249753;28;20026;-77
2024/03/29 07:41:36;;;;;;;0.75;0.30;;;;;;;;;;6251809;28;20032;-77
2024/03/29 07:44:37;;;;;;;0.30;0.30;;;;;;;;;;6241134;28;20382;-77
2024/03/29 07:47:37;;;;;;;0.40;0.30;;;;;;;;;;6227984;28;20041;-78
2024/03/29 07:50:37;;;;;;;0.30;0.20;;;;;;;;;;6259625;28;20033;-77
2024/03/29 07:53:37;;;;;;;0.40;0.30;;;;;;;;;;6249240;28;20465;-78
2024/03/29 07:56:38;;;;;;;0.30;0.20;;;;;;;;;;6251391;28;20029;-77
2024/03/29 07:59:38;;;;;;;0.20;0.20;;;;;;;;;;6249168;28;20450;-77
2024/03/29 08:02:39;;;;;;;0.40;0.23;;;;;;;;;;6259103;28;20466;-78
2024/03/29 08:05:40;;;;;;;0.20;0.20;;;;;;;;;;6265888;28;20093;-77
2024/03/29 08:08:40;;;;;;;0.75;0.30;;;;;;;;;;6247583;28;20063;-77
2024/03/29 08:11:41;;;;;;;0.33;0.30;;;;;;;;;;6249614;28;20037;-78
2024/03/29 08:14:41;;;;;;;0.43;0.13;;;;;;;;;;6247838;28;20035;-76
2024/03/29 08:17:41;;;;;;;0.53;0.27;;;;;;;;;;6248127;28;20060;-76
2024/03/29 08:20:42;;;;;;;0.40;0.30;;;;;;;;;;6249601;28;20359;-77
2024/03/29 08:23:46;;;;;;;0.98;0.22;;;;;;;;;;6248100;28;20462;-76
2024/03/29 08:26:47;;;;;;;0.30;0.25;;;;;;;;;;6249788;28;20054;-77
2024/03/29 08:29:49;;;;;;;2.33;0.40;;;;;;;;;;6249805;28;20029;-77
2024/03/29 08:32:49;;;;;;;0.57;0.30;;;;;;;;;;6248000;28;20260;-77
2024/03/29 08:35:49;;;;;;;0.40;0.37;;;;;;;;;;6248311;28;20053;-78
2024/03/29 08:38:50;;;;;;;0.20;0.20;;;;;;;;;;6249391;28;20033;-77
2024/03/29 08:41:50;;;;;;;5.10;0.30;;;;;;;;;;6249278;28;20033;-78
2024/03/29 08:44:50;;;;;;;0.30;0.20;;;;;;;;;;6248327;28;20029;-77
2024/03/29 08:47:51;;;;;;;0.20;0.20;;;;;;;;;;6240283;28;20025;-77
2024/03/29 08:50:51;;;;;;;1.37;0.20;;;;;;;;;;6232341;28;20143;-78
2024/03/29 08:53:51;;;;;;;0.43;0.20;;;;;;;;;;6261034;28;20036;-78
2024/03/29 08:56:51;;;;;;;0.53;0.20;;;;;;;;;;6260229;28;20489;-79
2024/03/29 08:59:52;;;;;;;0.30;0.20;;;;;;;;;;6240962;28;20033;-78
2024/03/29 09:02:52;;;;;;;0.40;0.20;;;;;;;;;;6240152;28;20029;-78
2024/03/29 09:05:52;;;;;;;0.43;0.23;;;;;;;;;;6255468;28;20080;-78
2024/03/29 09:08:52;;;;;;;0.20;0.17;;;;;;;;;;6249549;28;20020;-78
2024/03/29 09:11:53;;;;;;;0.90;0.30;;;;;;;;;;6259234;28;20036;-79
2024/03/29 09:14:53;;;;;;;0.20;0.20;;;;;;;;;;6264341;28;20025;-79
2024/03/29 09:17:54;;;;;;;0.90;0.40;;;;;;;;;;6246923;28;20025;-78
2024/03/29 09:20:58;;;;;;;0.50;0.30;;;;;;;;;;6248602;28;20021;-78
2024/03/29 09:23:59;;;;;;;0.30;0.30;;;;;;;;;;6230181;28;20028;-77
2024/03/29 09:27:00;;;;;;;0.40;0.40;;;;;;;;;;6263374;28;20099;-77
2024/03/29 09:30:00;;;;;;;1.27;0.40;;;;;;;;;;6251234;28;20026;-81
2024/03/29 09:33:01;;;;;;;1.03;0.30;;;;;;;;;;6245316;28;20030;-81
2024/03/29 09:36:02;;;;;;;0.15;0.10;;;;;;;;;;6244416;28;20049;-81
2024/03/29 09:39:04;;;;;;;0.40;0.20;;;;;;;;;;6232274;28;20046;-81
2024/03/29 09:42:05;;;;;;;0.63;0.30;;;;;;;;;;6247877;28;20385;-81
2024/03/29 09:45:07;;;;;;;0.43;0.20;;;;;;;;;;6248385;28;20112;-81
2024/03/29 09:48:08;;;;;;;1.02;0.43;;;;;;;;;;6246385;28;20025;-81
2024/03/29 09:51:09;;;;;;;1.40;0.43;;;;;;;;;;6247623;28;20112;-81
2024/03/29 09:54:12;;;;;;;0.55;0.40;;;;;;;;;;6245911;28;20036;-81
2024/03/29 09:57:13;;;;;;;1.70;0.30;;;;;;;;;;6244158;28;20029;-81
2024/03/29 10:00:13;;;;;;;0.60;0.30;;;;;;;;;;6244950;28;20041;-81
2024/03/29 10:03:14;;;;;;;1.58;0.60;;;;;;;;;;6246229;28;20116;-81
2024/03/29 10:06:15;;;;;;;0.20;0.20;;;;;;;;;;6248125;28;20377;-81
2024/03/29 10:09:17;;;;;;;1.20;0.22;;;;;;;;;;6246022;28;20415;-78
2024/03/29 10:12:18;;;;;;;0.63;0.30;;;;;;;;;;6247522;28;20021;-79
2024/03/29 10:15:21;;;;;;;0.80;0.40;;;;;;;;;;6237843;28;20045;-78
2024/03/29 10:18:22;;;;;;;0.73;0.30;;;;;;;;;;6246264;28;20439;-78
2024/03/29 10:21:26;;;;;;;1.13;0.60;;;;;;;;;;6245512;28;20112;-79
2024/03/29 10:24:26;;;;;;;0.20;0.20;;;;;;;;;;6244959;28;20059;-79
2024/03/29 10:27:27;;;;;;;0.30;0.30;;;;;;;;;;6245884;28;20087;-78
2024/03/29 10:30:27;;;;;;;;;;;;;;;;;;6245449;28;20488;-78
2024/03/29 10:33:29;;;;;;;0.25;0.25;;;;;;;;;;6241771;28;20051;-79
2024/03/29 10:36:29;;;;;;;0.98;0.30;;;;;;;;;;6246664;28;20148;-78
2024/03/29 10:39:31;;;;;;;0.30;0.27;;;;;;;;;;6248568;28;20033;-78
2024/03/29 10:42:33;;;;;;;0.32;0.30;;;;;;;;;;6251858;28;20017;-78
2024/03/29 10:45:33;;;;;;;1.85;0.47;;;;;;;;;;6252100;28;20026;-79
2024/03/29 10:48:36;;;;;;;1.60;0.50;;;;;;;;;;6250409;28;20029;-79
2024/03/29 10:51:38;;;;;;;1.92;0.32;;;;;;;;;;6250235;28;20195;-78
2024/03/29 10:54:38;;;;;;;0.57;0.40;;;;;;;;;;6249297;28;20033;-79
2024/03/29 10:57:39;;;;;;;;;;;;;;;;;;6251363;28;20040;-78
2024/03/29 11:00:42;;;;;;;0.20;0.20;;;;;;;;;;6251438;28;19905;-78
2024/03/29 11:03:44;;;;;;;0.77;0.28;;;;;;;;;;6248537;28;20382;-78
2024/03/29 11:06:47;;;;;;;0.43;0.30;;;;;;;;;;6251112;28;20026;-79
2024/03/29 11:09:50;;;;;;;1.08;0.40;;;;;;;;;;6250474;28;20072;-79
2024/03/29 11:12:59;;;;;;;0.70;0.40;;;;;;;;;;6251134;28;20417;-78
2024/03/29 11:16:00;;;;;;;1.38;0.50;;;;;;;;;;6251298;28;20061;-78
2024/03/29 11:19:04;;;;;;;;;;;;;;;;;;6249038;28;20021;-78
2024/03/29 11:22:05;;;;;;;0.90;0.30;;;;;;;;;;6249181;28;20000;-79
2024/03/29 11:25:05;;;;;;;;;;;;;;;;;;6251101;28;20017;-78
2024/03/29 11:28:13;;;;;;;0.90;0.40;;;;;;;;;;6250748;28;20016;-79
2024/03/29 11:31:14;;;;;;;0.63;0.32;;;;;;;;;;6226756;28;20028;-79
2024/03/29 11:34:14;;;;;;;1.05;0.40;;;;;;;;;;6243866;28;20025;-79
2024/03/29 11:37:15;;;;;;;;;;;;;;;;;;6249041;28;20041;-79
2024/03/29 11:40:15;;;;;;;0.70;0.40;;;;;;;;;;6250487;28;20281;-78
2024/03/29 11:43:15;;;;;;;;;;;;;;;;;;6249658;28;20041;-79
2024/03/29 11:46:16;;;;;;;0.32;0.28;;;;;;;;;;6250518;28;19919;-79
2024/03/29 11:49:17;;;;;;;;;;;;;;;;;;6247553;28;20036;-79
2024/03/29 11:52:18;;;;;;;0.93;0.47;;;;;;;;;;6248074;28;19978;-79
2024/03/29 11:55:18;;;;;;;0.47;0.30;;;;;;;;;;6237910;28;20034;-78
2024/03/29 11:58:28;;;;;;;0.50;0.40;;;;;;;;;;6225670;28;20076;-78
2024/03/29 12:01:29;;;;;;;0.47;0.30;;;;;;;;;;6227380;28;20029;-79
2024/03/29 12:04:29;;;;;;;1.83;0.40;;;;;;;;;;6248200;28;20112;-79
2024/03/29 12:07:29;;;;;;;;;;;;;;;;;;6249747;28;20343;-79
2024/03/29 12:10:30;;;;;;;0.65;0.40;;;;;;;;;;6249659;28;19912;-78
2024/03/29 12:13:30;;;;;;;;;;;;;;;;;;6249131;28;20454;-78
2024/03/29 12:16:30;;;;;;;0.55;0.30;;;;;;;;;;6249790;28;20011;-78
2024/03/29 12:19:32;;;;;;;;;;;;;;;;;;6254984;28;20481;-79
2024/03/29 12:22:33;;;;;;;0.65;0.30;;;;;;;;;;6249682;28;19905;-82
2024/03/29 12:25:33;;;;;;;;;;;;;;;;;;6256837;28;20029;-80
2024/03/29 12:28:34;;;;;;;0.70;0.40;;;;;;;;;;6251337;28;19963;-80
2024/03/29 12:31:34;;;;;;;1.75;0.55;;;;;;;;;;6249741;28;20369;-80
2024/03/29 12:34:34;;;;;;;1.27;0.40;;;;;;;;;;6246899;28;20393;-79
2024/03/29 12:37:35;;;;;;;1.13;0.60;;;;;;;;;;6248844;28;20036;-80
2024/03/29 12:40:37;;;;;;;0.73;0.50;;;;;;;;;;6248952;28;20382;-80
2024/03/29 12:43:37;;;;;;;0.50;0.50;;;;;;;;;;6249558;28;20283;-79
2024/03/29 12:46:38;;;;;;;0.83;0.40;;;;;;;;;;6249427;28;20025;-80
2024/03/29 12:49:40;;;;;;;0.60;0.30;;;;;;;;;;6248844;28;20339;-80
2024/03/29 12:52:41;;;;;;;0.40;0.35;;;;;;;;;;6264041;28;20576;-80
2024/03/29 12:55:45;;;;;;;0.45;0.30;;;;;;;;;;6261904;28;20045;-80
2024/03/29 12:58:45;;;;;;;0.85;0.30;;;;;;;;;;6248486;28;20382;-80
2024/03/29 13:01:45;;;;;;;0.30;0.30;;;;;;;;;;6248269;28;20033;-80
2024/03/29 13:04:46;;;;;;;0.50;0.40;;;;;;;;;;6246723;28;20473;-80
2024/03/29 13:07:46;;;;;;;0.43;0.25;;;;;;;;;;6248049;28;20104;-80
2024/03/29 13:10:46;;;;;;;0.57;0.30;;;;;;;;;;6247032;28;20105;-80
2024/03/29 13:13:47;;;;;;;0.40;0.20;;;;;;;;;;6248123;28;20025;-80
2024/03/29 13:16:47;;;;;;;0.67;0.40;;;;;;;;;;6248379;28;20284;-81
2024/03/29 13:19:47;;;;;;;0.40;0.20;;;;;;;;;;6246506;28;20272;-80
2024/03/29 13:22:49;;;;;;;0.20;0.20;;;;;;;;;;6247907;28;20433;-80
2024/03/29 13:25:50;;;;;;;0.20;0.20;;;;;;;;;;6247045;28;20033;-80
2024/03/29 13:28:51;;;;;;;0.60;0.30;;;;;;;;;;6246912;28;20104;-80
2024/03/29 13:31:51;;;;;;;0.63;0.20;;;;;;;;;;6248331;28;20025;-80
2024/03/29 13:34:51;;;;;;;0.40;0.30;;;;;;;;;;6245951;28;20292;-80
2024/03/29 13:37:55;;;;;;;0.57;0.40;;;;;;;;;;6247938;28;20041;-80
2024/03/29 13:40:56;;;;;;;0.52;0.40;;;;;;;;;;6245708;28;20737;-80
2024/03/29 13:43:57;;;;;;;0.50;0.40;;;;;;;;;;6247894;28;20497;-80
2024/03/29 13:46:58;;;;;;;0.82;0.30;;;;;;;;;;6243218;28;20022;-80
2024/03/29 13:49:58;;;;;;;0.80;0.45;;;;;;;;;;6238971;28;20064;-80
2024/03/29 13:52:58;;;;;;;0.70;0.30;;;;;;;;;;6247816;28;20025;-80
2024/03/29 13:55:58;;;;;;;0.53;0.40;;;;;;;;;;6245129;28;20358;-80
2024/03/29 13:58:59;;;;;;;1.17;0.53;;;;;;;;;;6247728;28;20260;-81
2024/03/29 14:01:59;;;;;;;0.53;0.40;;;;;;;;;;6247357;28;20248;-80
2024/03/29 14:04:59;;;;;;;0.97;0.50;;;;;;;;;;6246391;28;20293;-80
2024/03/29 14:08:00;;;;;;;0.57;0.40;;;;;;;;;;6247358;28;20267;-80
2024/03/29 14:11:01;;;;;;;1.38;0.32;;;;;;;;;;6247599;28;20259;-81
2024/03/29 14:14:01;;;;;;;1.55;0.32;;;;;;;;;;6237143;28;20030;-80
2024/03/29 14:17:04;;;;;;;0.20;0.20;;;;;;;;;;6227407;28;20030;-80
2024/03/29 14:20:04;;;;;;;1.40;0.30;;;;;;;;;;6242415;28;20280;-80
2024/03/29 14:23:06;;;;;;;0.47;0.38;;;;;;;;;;6236891;28;20025;-80
2024/03/29 14:26:06;;;;;;;0.95;0.32;;;;;;;;;;6250594;28;20018;-80
2024/03/29 14:29:06;;;;;;;0.57;0.40;;;;;;;;;;6227893;28;20382;-80
2024/03/29 14:32:06;;;;;;;0.47;0.20;;;;;;;;;;6241048;28;20748;-80
2024/03/29 14:35:10;;;;;;;0.63;0.50;;;;;;;;;;6251203;28;20291;-80
2024/03/29 14:38:10;;;;;;;1.02;0.65;;;;;;;;;;6250991;28;20295;-80
2024/03/29 14:41:11;;;;;;;0.83;0.43;;;;;;;;;;6252359;28;20021;-80
2024/03/29 14:44:11;;;;;;;1.67;0.53;;;;;;;;;;6251840;28;20305;-80
2024/03/29 14:47:11;;;;;;;1.00;0.50;;;;;;;;;;6249476;28;20288;-80
2024/03/29 14:50:12;;;;;;;0.32;0.32;;;;;;;;;;6251239;28;20356;-80
2024/03/29 14:53:12;;;;;;;0.60;0.40;;;;;;;;;;6251029;28;20053;-80
2024/03/29 14:56:12;;;;;;;0.50;0.30;;;;;;;;;;6250550;28;20112;-80
2024/03/29 14:59:13;;;;;;;0.50;0.30;;;;;;;;;;6246507;28;20032;-80
2024/03/29 15:02:13;;;;;;;0.70;0.40;;;;;;;;;;6250776;28;20462;-80
2024/03/29 15:05:13;;;;;;;0.57;0.30;;;;;;;;;;6250815;28;20721;-80
2024/03/29 15:08:16;;;;;;;0.40;0.40;;;;;;;;;;6250386;28;20752;-81
2024/03/29 15:11:17;;;;;;;0.40;0.28;;;;;;;;;;6251698;28;20371;-80
2024/03/29 15:14:17;;;;;;;0.50;0.32;;;;;;;;;;6248560;28;20029;-80
2024/03/29 15:17:17;;;;;;;0.90;0.35;;;;;;;;;;6250269;28;20025;-80
2024/03/29 15:20:18;;;;;;;0.60;0.40;;;;;;;;;;6250851;28;20026;-80
2024/03/29 15:23:23;;;;;;;0.40;0.30;;;;;;;;;;6240324;28;20261;-80
2024/03/29 15:26:23;;;;;;;0.82;0.30;;;;;;;;;;6226250;28;20165;-80
2024/03/29 15:29:24;;;;;;;0.23;0.23;;;;;;;;;;6245332;28;20389;-80
2024/03/29 15:32:30;;;;;;;0.73;0.20;;;;;;;;;;6247833;28;20272;-80
2024/03/29 15:35:30;;;;;;;0.52;0.20;;;;;;;;;;6250111;28;20091;-80
2024/03/29 15:38:31;;;;;;;0.20;0.13;;;;;;;;;;6249562;28;20485;-80
2024/03/29 15:41:32;;;;;;;0.20;0.20;;;;;;;;;;6249769;28;20756;-80
2024/03/29 15:44:32;;;;;;;0.10;0.10;;;;;;;;;;6249017;28;20025;-80
2024/03/29 15:47:34;;;;;;;0.20;0.10;;;;;;;;;;6249276;28;20028;-80
2024/03/29 15:50:34;;;;;;;0.10;0.10;;;;;;;;;;6250444;28;20733;-80
2024/03/29 15:53:34;;;;;;;0.17;0.17;;;;;;;;;;6239910;28;20101;-80
2024/03/29 15:56:35;;;;;;;0.20;0.10;;;;;;;;;;6244645;28;20033;-80
2024/03/29 15:59:36;;;;;;;0.30;0.20;;;;;;;;;;6240362;28;20083;-80
2024/03/29 16:02:45;;;;;;;0.20;0.20;;;;;;;;;;6248923;28;20033;-80
2024/03/29 16:05:45;;;;;;;1.60;0.20;;;;;;;;;;6249673;28;20346;-81
2024/03/29 16:08:46;;;;;;;0.10;0.10;;;;;;;;;;6249049;28;20466;-80
2024/03/29 16:11:46;;;;;;;0.20;0.20;;;;;;;;;;6250460;28;20029;-81
2024/03/29 16:14:46;;;;;;;0.50;0.20;;;;;;;;;;6249901;28;20370;-80
2024/03/29 16:17:46;;;;;;;0.20;0.20;;;;;;;;;;6247078;28;20695;-80
2024/03/29 16:20:47;;;;;;;0.20;0.20;;;;;;;;;;6249117;28;20767;-80
2024/03/29 16:23:47;;;;;;;0.30;0.30;;;;;;;;;;6248185;28;20728;-80
2024/03/29 16:26:47;;;;;;;0.20;0.20;;;;;;;;;;6249500;28;20737;-81
2024/03/29 16:29:48;;;;;;;0.60;0.40;;;;;;;;;;6249400;28;20425;-80
2024/03/29 16:32:48;;;;;;;0.30;0.20;;;;;;;;;;6246959;28;20757;-80
2024/03/29 16:35:48;;;;;;;0.37;0.30;;;;;;;;;;6261290;28;20656;-79
2024/03/29 16:38:48;;;;;;;0.70;0.40;;;;;;;;;;6252084;28;20279;-79
2024/03/29 16:41:49;;;;;;;0.20;0.20;;;;;;;;;;6262655;28;20028;-80
2024/03/29 16:44:50;;;;;;;0.60;0.25;;;;;;;;;;6250913;28;20307;-79
2024/03/29 16:47:50;;;;;;;0.20;0.20;;;;;;;;;;6261105;28;20488;-79
2024/03/29 16:50:50;;;;;;;0.43;0.33;;;;;;;;;;6236174;28;20765;-80
2024/03/29 16:53:51;;;;;;;0.40;0.30;;;;;;;;;;6247850;28;20789;-80
2024/03/29 16:56:51;;;;;;;1.05;0.77;;;;;;;;;;6242846;28;20896;-80
2024/03/29 16:59:51;;;;;;;2.10;1.90;;;;;;;;;;6233523;28;20032;-80
2024/03/29 17:02:53;;;;;;;1.23;0.90;;;;;;;;;;6247668;28;20264;-81
2024/03/29 17:05:53;;;;;;;0.80;0.65;;;;;;;;;;6248456;28;20260;-81
2024/03/29 17:08:53;;;;;;;0.60;0.45;;;;;;;;;;6249880;28;20068;-80
2024/03/29 17:11:53;;;;;;;0.77;0.55;;;;;;;;;;6262850;28;20075;-81
2024/03/29 17:14:54;;;;;;;1.57;1.03;;;;;;;;;;6230225;28;20052;-80
2024/03/29 17:17:54;;;;;;;1.92;1.38;;;;;;;;;;6223197;28;20320;-84
2024/03/29 17:20:56;;;;;;;1.30;1.00;;;;;;;;;;6243588;28;20025;-83
2024/03/29 17:23:56;;;;;;;1.08;0.88;;;;;;;;;;6246812;28;20330;-83
2024/03/29 17:26:56;;;;;;;;;;;;;;;;;;6252859;28;20029;-82
2024/03/29 17:29:56;;;;;;;0.70;0.50;;;;;;;;;;6253764;28;20289;-83
2024/03/29 17:32:57;;;;;;;1.00;0.90;;;;;;;;;;6243986;28;20033;-83
2024/03/29 17:35:57;;;;;;;;;;;;;;;;;;6247032;28;20361;-77
2024/03/29 17:38:57;;;;;;;1.15;1.05;;;;;;;;;;6246164;28;19924;-77
2024/03/29 17:41:57;;;;;;;;;;;;;;;;;;6248391;28;20044;-77
2024/03/29 17:44:58;;;;;;;0.80;0.57;;;;;;;;;;6242560;28;19915;-77
2024/03/29 17:47:58;;;;;;;1.07;0.43;;;;;;;;;;6244149;28;20466;-78
2024/03/29 17:50:58;;;;;;;;;;;;;;;;;;6247964;28;20737;-77
2024/03/29 17:53:58;;;;;;;0.55;0.40;;;;;;;;;;6245612;28;19909;-77
2024/03/29 17:56:58;;;;;;;;;;;;;;;;;;6239777;28;20026;-78
2024/03/29 18:00:01;;;;;;;0.50;0.50;;;;;;;;;;6233078;28;20482;-77
2024/03/29 18:03:01;;;;;;;0.57;0.40;;;;;;;;;;6254985;28;20032;-77
2024/03/29 18:06:01;;;;;;;;;;;;;;;;;;6247335;28;20017;-77
2024/03/29 18:09:01;;;;;;;0.60;0.43;;;;;;;;;;6246261;28;19948;-77
2024/03/29 18:12:01;;;;;;;;;;;;;;;;;;6247688;28;20501;-77
2024/03/29 18:15:02;;;;;;;0.30;0.30;;;;;;;;;;6260015;28;19911;-77